createdAt,value
2023-02-18T00:01:25.428Z,99434.98
2023-02-18T00:03:52.213Z,99431.98
2023-02-18T00:06:23.307Z,99437.77
2023-02-18T00:08:50.432Z,99435.34
2023-02-18T00:11:18.344Z,99445.16
2023-02-18T00:13:53.340Z,99443.36
2023-02-18T00:16:21.159Z,99447.73
2023-02-18T00:18:47.803Z,99452.63
2023-02-18T00:21:14.463Z,99451.45
2023-02-18T00:23:43.621Z,99454.35
2023-02-18T00:26:13.192Z,99450.73
2023-02-18T00:28:40.646Z,99449.27
2023-02-18T00:31:09.068Z,99449.61
2023-02-18T00:33:35.768Z,99452.30
2023-02-18T00:36:08.541Z,99445.25
2023-02-18T00:38:35.719Z,99438.63
2023-02-18T00:41:02.543Z,99446.88
2023-02-18T00:43:29.233Z,99446.68
2023-02-18T00:45:55.631Z,99450.13
2023-02-18T00:48:22.536Z,99459.84
2023-02-18T00:50:48.879Z,99455.48
2023-02-18T00:53:15.205Z,99454.79
2023-02-18T00:55:43.459Z,99460.70
2023-02-18T00:58:10.679Z,99460.48
2023-02-18T01:00:37.708Z,99471.54
2023-02-18T01:03:05.699Z,99468.24
2023-02-18T01:05:32.313Z,99466.41
2023-02-18T01:07:58.945Z,99461.89
2023-02-18T01:10:25.446Z,99459.44
2023-02-18T01:12:52.121Z,99465.97
2023-02-18T01:15:18.847Z,99465.49
2023-02-18T01:17:45.166Z,99469.39
2023-02-18T01:20:13.233Z,99461.83
2023-02-18T01:22:40.083Z,99458.45
2023-02-18T01:25:07.934Z,99459.22
2023-02-18T01:27:34.251Z,99448.77
2023-02-18T01:30:02.431Z,99456.46
2023-02-18T01:32:28.800Z,99464.27
2023-02-18T01:34:55.068Z,99451.02
2023-02-18T01:37:21.418Z,99445.40
2023-02-18T01:39:47.851Z,99439.35
2023-02-18T01:42:26.740Z,99448.94
2023-02-18T01:44:53.786Z,99439.68
2023-02-18T01:47:21.083Z,99440.67
2023-02-18T01:49:52.076Z,99439.81
2023-02-18T01:52:23.548Z,99436.45
2023-02-18T01:54:54.931Z,99445.86
2023-02-18T01:57:34.637Z,99439.71
2023-02-18T02:00:07.486Z,99440.91
2023-02-18T02:02:44.879Z,99437.54
2023-02-18T02:05:12.145Z,99432.81
2023-02-18T02:07:40.901Z,99439.40
2023-02-18T02:10:10.303Z,99445.80
2023-02-18T02:12:55.357Z,99450.44
2023-02-18T02:15:25.519Z,99445.02
2023-02-18T02:18:19.968Z,99436.85
2023-02-18T02:21:09.237Z,99450.63
2023-02-18T02:23:54.272Z,99460.96
2023-02-18T02:26:49.450Z,99462.71
2023-02-18T02:29:52.964Z,99448.52
2023-02-18T02:32:40.363Z,99454.17
2023-02-18T02:35:09.587Z,99461.81
2023-02-18T02:37:47.688Z,99473.02
2023-02-18T02:40:32.655Z,99478.55
2023-02-18T02:43:25.537Z,99477.02
2023-02-18T02:45:58.638Z,99475.64
2023-02-18T02:48:36.386Z,99475.74
2023-02-18T02:51:15.239Z,99486.86
2023-02-18T02:53:43.077Z,99495.84
2023-02-18T02:56:14.947Z,99499.23
2023-02-18T02:58:42.704Z,99499.45
2023-02-18T03:01:40.030Z,99504.54
2023-02-18T03:04:31.410Z,99500.11
2023-02-18T03:07:13.827Z,99500.36
2023-02-18T03:10:09.377Z,99511.94
2023-02-18T03:12:46.511Z,99514.55
2023-02-18T03:15:22.581Z,99517.81
2023-02-18T03:18:01.003Z,99508.92
2023-02-18T03:20:39.007Z,99507.70
2023-02-18T03:23:11.056Z,99515.28
2023-02-18T03:25:38.918Z,99513.77
2023-02-18T03:28:11.216Z,99506.77
2023-02-18T03:30:43.961Z,99516.84
2023-02-18T03:33:16.486Z,99509.08
2023-02-18T03:35:45.000Z,99514.05
2023-02-18T03:38:33.917Z,99502.96
2023-02-18T03:41:03.964Z,99512.48
2023-02-18T03:43:30.721Z,99512.49
2023-02-18T03:45:58.118Z,99514.99
2023-02-18T03:48:25.464Z,99522.23
2023-02-18T03:50:51.899Z,99522.77
2023-02-18T03:53:18.427Z,99515.05
2023-02-18T03:55:45.042Z,99508.61
2023-02-18T03:58:11.289Z,99509.19
2023-02-18T04:00:37.607Z,99516.79
2023-02-18T04:03:03.962Z,99518.71
2023-02-18T04:05:30.566Z,99518.16
2023-02-18T04:07:56.805Z,99517.39
2023-02-18T04:10:23.152Z,99527.42
2023-02-18T04:12:49.383Z,99523.80
2023-02-18T04:15:15.919Z,99523.09
2023-02-18T04:17:42.307Z,99532.00
2023-02-18T04:20:09.151Z,99527.82
2023-02-18T04:22:35.372Z,99526.81
2023-02-18T04:25:01.653Z,99530.71
2023-02-18T04:27:27.911Z,99526.89
2023-02-18T04:29:54.395Z,99528.52
2023-02-18T04:32:20.685Z,99526.35
2023-02-18T04:34:47.035Z,99532.71
2023-02-18T04:37:13.309Z,99536.42
2023-02-18T04:39:39.641Z,99527.52
2023-02-18T04:42:08.231Z,99535.46
2023-02-18T04:44:36.560Z,99537.43
2023-02-18T04:47:04.716Z,99538.90
2023-02-18T04:49:31.144Z,99532.01
2023-02-18T04:51:57.735Z,99538.80
2023-02-18T04:54:23.986Z,99533.95
2023-02-18T04:56:50.287Z,99543.14
2023-02-18T04:59:16.817Z,99533.33
2023-02-18T05:01:43.091Z,99535.23
2023-02-18T05:04:09.479Z,99531.98
2023-02-18T05:06:38.752Z,99535.48
2023-02-18T05:09:06.094Z,99529.10
2023-02-18T05:11:32.323Z,99533.30
2023-02-18T05:13:58.579Z,99534.20
2023-02-18T05:16:24.927Z,99538.33
2023-02-18T05:18:51.405Z,99542.38
2023-02-18T05:21:17.801Z,99544.62
2023-02-18T05:23:44.157Z,99542.50
2023-02-18T05:26:10.644Z,99546.42
2023-02-18T05:28:37.216Z,99552.58
2023-02-18T05:31:03.724Z,99544.05
2023-02-18T05:33:30.002Z,99555.54
2023-02-18T05:35:56.321Z,99560.94
2023-02-18T05:38:23.061Z,99567.80
2023-02-18T05:40:49.334Z,99567.61
2023-02-18T05:43:15.726Z,99561.64
2023-02-18T05:45:42.021Z,99563.36
2023-02-18T05:48:08.601Z,99569.05
2023-02-18T05:50:35.489Z,99575.02
2023-02-18T05:53:01.845Z,99571.11
2023-02-18T05:55:28.100Z,99572.61
2023-02-18T05:57:54.501Z,99571.17
2023-02-18T06:00:20.957Z,99570.90
2023-02-18T06:02:47.447Z,99568.52
2023-02-18T06:05:13.789Z,99566.94
2023-02-18T06:07:40.120Z,99577.65
2023-02-18T06:10:07.095Z,99576.59
2023-02-18T06:12:33.424Z,99580.96
2023-02-18T06:14:59.741Z,99588.48
2023-02-18T06:17:26.174Z,99592.48
2023-02-18T06:19:52.570Z,99602.88
2023-02-18T06:22:18.920Z,99605.89
2023-02-18T06:24:45.383Z,99615.48
2023-02-18T06:27:11.717Z,99615.36
2023-02-18T06:29:38.023Z,99623.33
2023-02-18T06:32:04.681Z,99635.70
2023-02-18T06:34:31.250Z,99633.41
2023-02-18T06:36:57.465Z,99634.70
2023-02-18T06:39:23.740Z,99637.05
2023-02-18T06:41:49.990Z,99636.02
2023-02-18T06:44:16.836Z,99644.02
2023-02-18T06:46:44.088Z,99642.14
2023-02-18T06:49:10.573Z,99644.27
2023-02-18T06:51:36.909Z,99644.95
2023-02-18T06:54:05.064Z,99647.88
2023-02-18T06:56:31.577Z,99649.16
2023-02-18T06:58:58.164Z,99649.24
2023-02-18T07:01:24.474Z,99650.38
2023-02-18T07:03:50.803Z,99660.34
2023-02-18T07:06:17.231Z,99658.75
2023-02-18T07:08:43.595Z,99666.40
2023-02-18T07:11:09.846Z,99672.92
2023-02-18T07:13:36.296Z,99668.63
2023-02-18T07:16:02.646Z,99676.37
2023-02-18T07:18:29.059Z,99676.70
2023-02-18T07:20:55.363Z,99675.66
2023-02-18T07:23:21.688Z,99675.42
2023-02-18T07:25:47.955Z,99676.31
2023-02-18T07:28:14.415Z,99686.14
2023-02-18T07:30:40.717Z,99687.54
2023-02-18T07:33:07.410Z,99680.50
2023-02-18T07:35:33.776Z,99674.06
2023-02-18T07:38:02.203Z,99673.31
2023-02-18T07:40:28.673Z,99677.92
2023-02-18T07:42:55.064Z,99672.63
2023-02-18T07:45:21.475Z,99665.67
2023-02-18T07:47:47.726Z,99665.05
2023-02-18T07:50:14.042Z,99665.02
2023-02-18T07:52:40.421Z,99665.39
2023-02-18T07:55:07.287Z,99671.11
2023-02-18T07:57:53.745Z,99670.20
2023-02-18T08:00:20.373Z,99673.95
2023-02-18T08:02:46.605Z,99664.89
2023-02-18T08:05:12.923Z,99663.09
2023-02-18T08:07:39.753Z,99663.04
2023-02-18T08:10:06.732Z,99669.13
2023-02-18T08:12:33.388Z,99673.86
2023-02-18T08:14:59.696Z,99679.19
2023-02-18T08:17:26.215Z,99678.11
2023-02-18T08:19:52.800Z,99680.41
2023-02-18T08:22:19.093Z,99683.56
2023-02-18T08:24:45.461Z,99677.45
2023-02-18T08:27:12.686Z,99674.51
2023-02-18T08:29:38.966Z,99676.02
2023-02-18T08:32:05.297Z,99680.55
2023-02-18T08:34:31.804Z,99676.46
2023-02-18T08:36:58.180Z,99685.21
2023-02-18T08:39:24.553Z,99689.21
2023-02-18T08:41:51.026Z,99681.30
2023-02-18T08:44:20.109Z,99675.58
2023-02-18T08:46:48.454Z,99678.04
2023-02-18T08:49:14.744Z,99678.87
2023-02-18T08:51:41.174Z,99686.09
2023-02-18T08:54:07.426Z,99682.70
2023-02-18T08:56:33.744Z,99693.83
2023-02-18T08:59:00.124Z,99695.23
2023-02-18T09:01:26.580Z,99704.94
2023-02-18T09:03:53.311Z,99700.13
2023-02-18T09:06:20.263Z,99699.42
2023-02-18T09:08:47.276Z,99698.77
2023-02-18T09:11:13.702Z,99694.77
2023-02-18T09:13:40.552Z,99702.63
2023-02-18T09:16:11.506Z,99704.80
2023-02-18T09:18:38.304Z,99707.55
2023-02-18T09:21:08.765Z,99714.52
2023-02-18T09:23:35.997Z,99715.48
2023-02-18T09:26:08.063Z,99714.64
2023-02-18T09:28:35.807Z,99716.34
2023-02-18T09:31:15.521Z,99720.77
2023-02-18T09:33:46.143Z,99726.27
2023-02-18T09:36:13.408Z,99722.02
2023-02-18T09:38:40.300Z,99731.09
2023-02-18T09:41:21.755Z,99722.86
2023-02-18T09:43:51.473Z,99731.16
2023-02-18T09:46:39.946Z,99735.80
2023-02-18T09:49:14.915Z,99728.62
2023-02-18T09:51:41.928Z,99733.19
2023-02-18T09:54:15.113Z,99729.45
2023-02-18T09:56:43.709Z,99737.83
2023-02-18T09:59:17.761Z,99737.09
2023-02-18T10:01:47.613Z,99739.48
2023-02-18T10:04:18.594Z,99742.10
2023-02-18T10:06:47.447Z,99741.55
2023-02-18T10:09:34.789Z,99741.60
2023-02-18T10:12:14.753Z,99749.63
2023-02-18T10:14:43.749Z,99753.33
2023-02-18T10:17:15.898Z,99746.79
2023-02-18T10:19:45.351Z,99744.66
2023-02-18T10:22:15.180Z,99733.51
2023-02-18T10:24:58.820Z,99733.58
2023-02-18T10:27:28.563Z,99734.77
2023-02-18T10:30:32.311Z,99733.40
2023-02-18T10:33:26.380Z,99742.46
2023-02-18T10:36:00.284Z,99729.01
2023-02-18T10:38:59.027Z,99731.90
2023-02-18T10:41:36.721Z,99731.23
2023-02-18T10:44:10.507Z,99728.05
2023-02-18T10:46:55.699Z,99720.98
2023-02-18T10:49:53.302Z,99712.92
2023-02-18T10:52:20.453Z,99716.14
2023-02-18T10:54:48.144Z,99712.02
2023-02-18T10:57:23.172Z,99708.85
2023-02-18T10:59:59.455Z,99708.27
2023-02-18T11:02:30.954Z,99713.69
2023-02-18T11:05:03.101Z,99713.65
2023-02-18T11:07:34.078Z,99706.77
2023-02-18T11:10:14.472Z,99709.10
2023-02-18T11:13:00.336Z,99704.54
2023-02-18T11:15:28.250Z,99702.77
2023-02-18T11:18:13.021Z,99698.88
2023-02-18T11:20:39.749Z,99696.91
2023-02-18T11:23:05.956Z,99695.79
2023-02-18T11:25:38.462Z,99690.89
2023-02-18T11:28:22.485Z,99693.61
2023-02-18T11:30:55.356Z,99684.55
2023-02-18T11:33:39.458Z,99681.96
2023-02-18T11:36:19.306Z,99676.49
2023-02-18T11:38:58.252Z,99674.51
2023-02-18T11:41:37.938Z,99665.19
2023-02-18T11:44:07.133Z,99667.80
2023-02-18T11:46:33.621Z,99673.31
2023-02-18T11:49:21.831Z,99674.78
2023-02-18T11:51:49.908Z,99670.10
2023-02-18T11:54:29.963Z,99662.18
2023-02-18T11:57:06.092Z,99669.89
2023-02-18T11:59:35.646Z,99664.65
2023-02-18T12:02:05.966Z,99663.81
2023-02-18T12:04:47.734Z,99651.35
2023-02-18T12:07:23.107Z,99646.34
2023-02-18T12:09:54.280Z,99655.22
2023-02-18T12:12:43.503Z,99641.67
2023-02-18T12:15:17.739Z,99644.13
2023-02-18T12:18:20.593Z,99638.47
2023-02-18T12:21:22.133Z,99650.89
2023-02-18T12:23:57.438Z,99638.15
2023-02-18T12:27:11.538Z,99644.39
2023-02-18T12:29:59.046Z,99630.84
2023-02-18T12:32:34.485Z,99635.39
2023-02-18T12:35:18.919Z,99631.67
2023-02-18T12:38:33.399Z,99627.40
2023-02-18T12:41:11.409Z,99623.94
2023-02-18T12:44:07.517Z,99627.56
2023-02-18T12:46:56.625Z,99623.52
2023-02-18T12:49:44.096Z,99616.39
2023-02-18T12:53:10.438Z,99603.33
2023-02-18T12:56:03.910Z,99610.11
2023-02-18T12:58:39.432Z,99601.78
2023-02-18T13:01:24.609Z,99598.88
2023-02-18T13:04:00.325Z,99603.84
2023-02-18T13:06:45.268Z,99594.95
2023-02-18T13:09:26.922Z,99602.02
2023-02-18T13:11:59.195Z,99604.44
2023-02-18T13:14:46.128Z,99594.28
2023-02-18T13:29:55.269Z,99593.96
2023-02-18T13:32:35.596Z,99596.36
2023-02-18T13:35:17.207Z,99600.98
2023-02-18T13:37:49.340Z,99605.17
2023-02-18T13:40:26.950Z,99609.27
2023-02-18T13:42:53.989Z,99613.17
2023-02-18T13:45:31.136Z,99608.61
2023-02-18T13:47:58.815Z,99612.84
2023-02-18T13:50:31.594Z,99604.05
2023-02-18T13:53:03.974Z,99604.31
2023-02-18T13:56:04.542Z,99606.36
2023-02-18T13:58:33.697Z,99601.41
2023-02-18T14:01:17.639Z,99597.86
2023-02-18T14:03:44.435Z,99595.66
2023-02-18T14:06:23.164Z,99595.06
2023-02-18T14:08:50.799Z,99588.81
2023-02-18T14:11:17.152Z,99585.31
2023-02-18T14:14:08.453Z,99578.88
2023-02-18T14:17:13.217Z,99579.33
2023-02-18T14:19:40.133Z,99571.12
2023-02-18T14:22:25.453Z,99561.55
2023-02-18T14:25:00.496Z,99565.33
2023-02-18T14:27:26.904Z,99559.64
2023-02-18T14:29:53.725Z,99560.23
2023-02-18T14:32:21.016Z,99553.09
2023-02-18T14:35:07.974Z,99553.66
2023-02-18T14:38:02.515Z,99552.16
2023-02-18T14:40:55.144Z,99555.13
2023-02-18T14:43:43.006Z,99556.44
2023-02-18T14:46:38.303Z,99561.04
2023-02-18T14:49:16.412Z,99562.31
2023-02-18T14:51:47.320Z,99552.98
2023-02-18T14:54:17.911Z,99561.05
2023-02-18T14:57:07.466Z,99556.14
2023-02-18T14:59:39.148Z,99559.70
2023-02-18T15:02:21.298Z,99557.23
2023-02-18T15:04:49.927Z,99554.95
2023-02-18T15:07:19.855Z,99553.77
2023-02-18T15:09:52.983Z,99553.79
2023-02-18T15:12:25.465Z,99546.18
2023-02-18T15:14:53.927Z,99547.83
2023-02-18T15:17:26.835Z,99550.01
2023-02-18T15:19:56.522Z,99539.98
2023-02-18T15:22:25.613Z,99537.63
2023-02-18T15:24:54.558Z,99535.13
2023-02-18T15:27:27.703Z,99544.38
2023-02-18T15:30:18.721Z,99543.77
2023-02-18T15:32:50.946Z,99542.38
2023-02-18T15:35:20.368Z,99538.89
2023-02-18T15:37:52.255Z,99535.85
2023-02-18T15:40:21.928Z,99531.38
2023-02-18T15:42:55.276Z,99533.98
2023-02-18T15:45:25.530Z,99538.48
2023-02-18T15:47:56.595Z,99539.35
2023-02-18T15:50:37.028Z,99536.50
2023-02-18T15:53:13.799Z,99545.91
2023-02-18T15:55:46.710Z,99542.75
2023-02-18T15:58:20.940Z,99546.66
2023-02-18T16:00:56.812Z,99550.59
2023-02-18T16:03:24.580Z,99545.55
2023-02-18T16:06:07.660Z,99540.65
2023-02-18T16:08:34.238Z,99542.29
2023-02-18T16:11:04.202Z,99541.58
2023-02-18T16:13:31.933Z,99540.09
2023-02-18T16:16:00.998Z,99548.41
2023-02-18T16:18:30.167Z,99549.89
2023-02-18T16:21:18.242Z,99553.40
2023-02-18T16:23:58.673Z,99554.31
2023-02-18T16:26:41.147Z,99558.12
2023-02-18T16:29:13.874Z,99558.38
2023-02-18T16:31:41.716Z,99555.62
2023-02-18T16:34:08.350Z,99555.58
2023-02-18T16:36:34.886Z,99551.15
2023-02-18T16:39:01.529Z,99553.30
2023-02-18T16:41:28.681Z,99555.75
2023-02-18T16:43:55.206Z,99554.70
2023-02-18T16:46:23.141Z,99559.02
2023-02-18T16:48:54.155Z,99556.84
2023-02-18T16:51:25.870Z,99555.73
2023-02-18T16:53:52.282Z,99559.04
2023-02-18T16:56:24.833Z,99560.41
2023-02-18T16:58:51.609Z,99553.83
2023-02-18T17:01:44.064Z,99556.11
2023-02-18T17:04:13.246Z,99555.22
2023-02-18T17:06:44.341Z,99550.77
2023-02-18T17:09:16.247Z,99549.30
2023-02-18T17:11:44.674Z,99548.77
2023-02-18T17:14:17.496Z,99542.66
2023-02-18T17:16:45.355Z,99544.88
2023-02-18T17:19:11.808Z,99547.49
2023-02-18T17:21:38.480Z,99545.86
2023-02-18T17:24:05.162Z,99547.99
2023-02-18T17:42:35.417Z,99550.30
2023-02-18T17:45:17.457Z,99556.66
2023-02-18T17:47:45.198Z,99558.66
2023-02-18T17:50:13.415Z,99553.20
2023-02-18T17:52:41.527Z,99543.54
2023-02-18T17:55:19.134Z,99542.47
2023-02-18T17:57:47.620Z,99535.59
2023-02-18T18:00:37.096Z,99548.50
2023-02-18T18:03:05.555Z,99550.00
2023-02-18T18:05:39.844Z,99545.85
2023-02-18T18:08:08.736Z,99540.73
2023-02-18T18:10:41.549Z,99543.91
2023-02-18T18:13:17.945Z,99539.12
2023-02-18T18:15:46.067Z,99539.09
2023-02-18T18:18:14.857Z,99540.60
2023-02-18T18:20:52.865Z,99546.42
2023-02-18T18:23:25.177Z,99549.31
2023-02-18T18:25:57.789Z,99544.01
2023-02-18T18:28:26.817Z,99544.23
2023-02-18T18:30:56.107Z,99545.91
2023-02-18T18:33:27.543Z,99539.21
2023-02-18T18:35:56.643Z,99534.83
2023-02-18T18:38:26.860Z,99537.77
2023-02-18T18:40:55.632Z,99541.16
2023-02-18T18:43:32.574Z,99550.39
2023-02-18T18:46:00.751Z,99544.55
2023-02-18T18:48:28.724Z,99546.20
2023-02-18T18:50:58.213Z,99551.77
2023-02-18T18:53:29.808Z,99557.53
2023-02-18T18:56:00.678Z,99555.27
2023-02-18T18:58:28.437Z,99549.44
2023-02-18T19:01:00.176Z,99543.94
2023-02-18T19:03:29.441Z,99545.08
2023-02-18T19:05:58.061Z,99552.32
2023-02-18T19:08:26.049Z,99559.01
2023-02-18T19:10:55.877Z,99558.91
2023-02-18T19:13:32.025Z,99562.03
2023-02-18T19:19:31.430Z,99567.25
2023-02-18T19:21:59.100Z,99580.96
2023-02-18T19:24:26.796Z,99590.42
2023-02-18T19:26:54.551Z,99595.43
2023-02-18T19:29:23.604Z,99600.96
2023-02-18T19:31:51.644Z,99603.77
2023-02-18T19:34:19.787Z,99595.66
2023-02-18T19:36:48.206Z,99594.15
2023-02-18T19:39:16.017Z,99590.74
2023-02-18T19:41:44.024Z,99597.79
2023-02-18T19:44:11.868Z,99593.83
2023-02-18T19:46:39.673Z,99596.33
2023-02-18T19:49:08.423Z,99608.16
2023-02-18T19:51:36.320Z,99611.77
2023-02-18T19:54:04.118Z,99614.84
2023-02-18T19:56:31.846Z,99626.36
2023-02-18T19:58:59.564Z,99620.52
2023-02-18T20:01:27.508Z,99622.93
2023-02-18T20:03:55.332Z,99622.07
2023-02-18T20:06:23.815Z,99614.84
2023-02-18T20:08:52.910Z,99621.45
2023-02-18T20:11:23.079Z,99625.04
2023-02-18T20:13:50.793Z,99630.27
2023-02-18T20:16:18.747Z,99631.84
2023-02-18T20:18:46.510Z,99633.77
2023-02-18T20:21:14.351Z,99631.09
2023-02-18T20:23:42.339Z,99637.13
2023-02-18T20:26:11.749Z,99644.39
2023-02-18T20:28:39.527Z,99648.61
2023-02-18T20:31:11.171Z,99660.02
2023-02-18T20:33:39.975Z,99667.42
2023-02-18T20:36:08.664Z,99676.25
2023-02-18T20:38:37.459Z,99683.83
2023-02-18T20:41:05.402Z,99684.45
2023-02-18T20:43:33.335Z,99692.65
2023-02-18T20:46:07.273Z,99691.45
2023-02-18T20:48:36.882Z,99693.11
2023-02-18T20:51:13.564Z,99697.48
2023-02-18T20:53:43.195Z,99698.42
2023-02-18T20:56:10.948Z,99705.67
2023-02-18T20:58:39.761Z,99705.20
2023-02-18T21:01:11.221Z,99709.04
2023-02-18T21:03:39.581Z,99704.95
2023-02-18T21:06:10.123Z,99710.56
2023-02-18T21:08:40.495Z,99721.88
2023-02-18T21:11:12.202Z,99722.56
2023-02-18T21:13:40.397Z,99729.21
2023-02-18T21:16:09.861Z,99733.48
2023-02-18T21:18:37.700Z,99740.35
2023-02-18T21:21:08.359Z,99741.23
2023-02-18T21:23:37.443Z,99738.33
2023-02-18T21:26:11.172Z,99736.77
2023-02-18T21:28:39.976Z,99733.41
2023-02-18T21:31:20.224Z,99737.44
2023-02-18T21:33:48.957Z,99742.77
2023-02-18T21:36:19.027Z,99746.61
2023-02-18T21:38:59.376Z,99755.24
2023-02-18T21:41:29.902Z,99758.81
2023-02-18T21:43:58.729Z,99768.45
2023-02-18T21:46:29.493Z,99775.95
2023-02-18T21:49:03.456Z,99787.20
2023-02-18T21:51:57.211Z,99794.98
2023-02-18T21:54:28.419Z,99797.13
2023-02-18T21:56:57.301Z,99796.89
2023-02-18T21:59:29.258Z,99797.68
2023-02-18T22:02:01.287Z,99799.79
2023-02-18T22:04:34.040Z,99808.72
2023-02-18T22:07:04.394Z,99812.39
2023-02-18T22:09:32.131Z,99818.84
2023-02-18T22:11:59.942Z,99823.20
2023-02-18T22:14:28.280Z,99827.99
2023-02-18T22:16:56.434Z,99830.30
2023-02-18T22:19:24.733Z,99828.54
2023-02-18T22:21:52.551Z,99833.80
2023-02-18T22:24:20.283Z,99838.85
2023-02-18T22:26:48.928Z,99835.84
2023-02-18T22:29:18.488Z,99835.97
2023-02-18T22:31:47.280Z,99838.23
2023-02-18T22:34:16.201Z,99841.15
2023-02-18T22:36:43.859Z,99851.49
2023-02-18T22:39:12.610Z,99850.12
2023-02-18T22:41:40.269Z,99849.72
2023-02-18T22:44:11.970Z,99855.70
2023-02-18T22:46:39.925Z,99858.63
2023-02-18T22:49:08.326Z,99856.38
2023-02-18T22:51:39.153Z,99861.30
2023-02-18T22:54:11.147Z,99870.60
2023-02-18T22:56:39.221Z,99867.96
2023-02-18T22:59:11.265Z,99864.80
2023-02-18T23:01:41.257Z,99873.08
2023-02-18T23:04:11.750Z,99869.30
2023-02-18T23:06:43.390Z,99880.17
2023-02-18T23:09:21.876Z,99876.73
2023-02-18T23:11:53.149Z,99874.70
2023-02-18T23:14:21.875Z,99883.50
2023-02-18T23:17:13.562Z,99885.73
2023-02-18T23:19:46.882Z,99891.67
2023-02-18T23:22:18.757Z,99884.39
2023-02-18T23:24:50.053Z,99892.19
2023-02-18T23:27:17.884Z,99898.17
2023-02-18T23:29:45.771Z,99895.13
2023-02-18T23:32:14.061Z,99903.20
2023-02-18T23:34:41.827Z,99893.66
2023-02-18T23:37:11.395Z,99913.54
2023-02-18T23:39:39.961Z,99920.02
2023-02-18T23:42:08.768Z,99927.81
2023-02-18T23:44:36.726Z,99929.66
2023-02-18T23:47:04.579Z,99930.48
2023-02-18T23:49:32.269Z,99934.31
2023-02-18T23:52:00.348Z,99935.36
2023-02-18T23:54:28.174Z,99926.25
2023-02-18T23:56:55.931Z,99929.67
2023-02-18T23:59:24.503Z,99925.61
